Time;durP1;ratioP1;P1;durP2;ratioP2;P2;SDS_P1;SDS_P2;PMS_P1;PMS_P2;Temp;Humidity;BMP_temperature;BMP_pressure;BME280_temperature;BME280_humidity;BME280_pressure;Samples;Min_cycle;Max_cycle;Signal;HPM_P1;HPM_P2
2022/11/25 00:01:23;;;;;;;7.37;5.70;;;7.10;43.20;;;;;;10396122;28;20562;-67
2022/11/25 00:06:29;;;;;;;5.70;5.20;;;7.10;43.30;;;;;;10396696;28;20237;-66
2022/11/25 00:11:36;;;;;;;6.13;5.23;;;7.10;43.20;;;;;;10393579;28;20633;-67
2022/11/25 00:16:39;;;;;;;6.40;5.60;;;7.10;43.20;;;;;;10397565;28;20710;-67
2022/11/25 00:21:50;;;;;;;5.67;5.17;;;7.10;43.10;;;;;;10396928;28;20788;-67
2022/11/25 00:26:54;;;;;;;6.07;5.53;;;7.10;43.20;;;;;;10399318;28;20736;-67
2022/11/25 00:31:57;;;;;;;5.70;5.17;;;7.10;43.20;;;;;;10397411;28;20240;-67
2022/11/25 00:37:00;;;;;;;5.93;4.97;;;7.00;43.20;;;;;;10393273;28;20271;-67
2022/11/25 00:47:25;;;;;;;5.80;4.90;;;7.00;43.00;;;;;;10395524;28;20287;-67
2022/11/25 00:52:29;;;;;;;5.80;4.93;;;6.90;43.10;;;;;;10394017;28;20827;-68
2022/11/25 00:57:33;;;;;;;5.07;4.57;;;6.90;43.20;;;;;;10397556;28;20280;-68
2022/11/25 01:02:36;;;;;;;6.47;5.10;;;6.80;43.30;;;;;;10401891;28;20230;-74
2022/11/25 01:07:40;;;;;;;5.43;4.97;;;6.80;43.30;;;;;;10405102;28;20225;-68
2022/11/25 01:12:47;;;;;;;5.60;5.00;;;6.80;43.30;;;;;;10400885;28;20738;-68
2022/11/25 01:17:50;;;;;;;6.93;6.00;;;6.80;43.40;;;;;;10401299;28;20234;-68
2022/11/25 01:22:53;;;;;;;6.67;6.00;;;6.80;43.40;;;;;;10403629;28;20234;-68
2022/11/25 01:27:58;;;;;;;9.63;8.63;;;6.80;43.40;;;;;;10401387;28;20240;-68
2022/11/25 01:33:01;;;;;;;7.23;6.63;;;6.80;43.30;;;;;;10403463;28;20639;-68
2022/11/25 01:38:05;;;;;;;7.40;6.70;;;6.80;43.30;;;;;;10402034;28;20311;-68
2022/11/25 01:43:14;;;;;;;6.97;6.23;;;6.80;43.50;;;;;;10401595;28;20232;-69
2022/11/25 01:48:22;;;;;;;6.23;5.23;;;6.70;43.50;;;;;;10389673;28;20223;-74
2022/11/25 01:53:25;;;;;;;5.77;4.90;;;6.80;43.40;;;;;;10392527;28;20237;-74
2022/11/25 01:58:33;;;;;;;5.53;4.97;;;6.70;43.30;;;;;;10400503;28;20225;-74
2022/11/25 02:03:41;;;;;;;4.60;4.20;;;6.70;43.20;;;;;;10402094;28;20765;-70
2022/11/25 02:08:48;;;;;;;4.67;4.13;;;6.70;43.10;;;;;;10401677;28;20584;-70
2022/11/25 02:13:53;;;;;;;4.40;3.97;;;6.70;43.20;;;;;;10402125;28;20222;-70
2022/11/25 02:18:57;;;;;;;4.77;4.30;;;6.60;43.20;;;;;;10399857;28;20225;-70
2022/11/25 02:24:08;;;;;;;4.53;4.07;;;6.60;43.20;;;;;;10398436;28;20226;-70
2022/11/25 02:29:13;;;;;;;4.93;4.13;;;6.60;43.00;;;;;;10395246;28;20229;-70
2022/11/25 02:34:17;;;;;;;4.50;4.10;;;6.60;43.10;;;;;;10401114;28;20225;-69
2022/11/25 02:39:21;;;;;;;5.50;4.77;;;6.50;43.20;;;;;;10397058;28;20221;-69
2022/11/25 02:44:26;;;;;;;6.57;4.33;;;6.50;43.10;;;;;;10400611;28;20332;-69
2022/11/25 02:49:29;;;;;;;4.83;4.43;;;6.50;43.10;;;;;;10398503;28;20226;-69
2022/11/25 02:54:32;;;;;;;5.83;4.73;;;6.50;43.30;;;;;;10398458;28;21036;-69
2022/11/25 02:59:37;;;;;;;5.90;4.57;;;6.50;43.20;;;;;;10397729;28;20316;-69
2022/11/25 03:04:40;;;;;;;5.63;5.00;;;6.50;43.20;;;;;;10401292;28;20233;-69
2022/11/25 03:09:43;;;;;;;5.77;4.50;;;6.50;43.20;;;;;;10397068;28;20226;-74
2022/11/25 03:14:48;;;;;;;6.13;4.03;;;6.40;43.00;;;;;;10398487;28;20226;-74
2022/11/25 03:19:51;;;;;;;4.70;4.30;;;6.40;43.00;;;;;;10397084;28;20325;-74
2022/11/25 03:24:54;;;;;;;4.57;4.17;;;6.40;43.10;;;;;;10399527;28;20279;-75
2022/11/25 03:29:59;;;;;;;4.50;4.17;;;6.40;43.10;;;;;;10398322;28;20614;-74
2022/11/25 03:35:02;;;;;;;6.10;4.77;;;6.40;43.20;;;;;;10399464;28;20241;-71
2022/11/25 03:40:07;;;;;;;4.70;4.10;;;6.30;43.00;;;;;;10398962;28;20232;-74
2022/11/25 03:45:14;;;;;;;4.80;4.27;;;6.30;43.10;;;;;;10398298;28;20733;-74
2022/11/25 03:50:17;;;;;;;4.77;3.70;;;6.30;42.90;;;;;;10398115;28;20729;-75
2022/11/25 03:55:20;;;;;;;4.30;3.90;;;6.30;43.00;;;;;;10396242;28;20283;-74
2022/11/25 04:00:24;;;;;;;4.47;4.07;;;6.30;43.10;;;;;;10397230;28;20234;-74
2022/11/25 04:05:28;;;;;;;4.80;4.40;;;6.20;42.90;;;;;;10399703;28;20779;-74
2022/11/25 04:10:31;;;;;;;5.50;4.50;;;6.20;43.00;;;;;;10397565;28;20233;-74
2022/11/25 04:15:35;;;;;;;4.40;4.00;;;6.10;43.00;;;;;;10397511;28;20241;-74
2022/11/25 04:20:38;;;;;;;6.03;5.30;;;6.10;43.00;;;;;;10397700;28;20271;-74
2022/11/25 04:25:42;;;;;;;6.50;5.80;;;6.10;43.00;;;;;;10396693;28;20589;-74
2022/11/25 04:30:46;;;;;;;6.20;5.60;;;6.00;42.90;;;;;;10385044;28;20255;-68
2022/11/25 04:35:49;;;;;;;6.07;4.67;;;5.90;43.20;;;;;;10401147;28;20228;-68
2022/11/25 04:40:53;;;;;;;5.07;4.57;;;5.90;43.20;;;;;;10404014;28;20226;-68
2022/11/25 04:45:57;;;;;;;5.77;4.83;;;5.90;43.40;;;;;;10401324;28;20621;-68
2022/11/25 04:51:16;;;;;;;5.43;4.83;;;5.90;43.40;;;;;;10399526;28;20260;-69
2022/11/25 04:56:20;;;;;;;6.20;5.30;;;5.80;43.10;;;;;;10404428;28;20225;-75
2022/11/25 05:01:24;;;;;;;6.03;4.70;;;5.80;43.40;;;;;;10398153;28;20225;-75
2022/11/25 05:06:28;;;;;;;4.57;4.17;;;5.80;43.40;;;;;;10403890;28;20245;-74
2022/11/25 05:11:31;;;;;;;5.07;4.57;;;5.80;43.40;;;;;;10401035;28;20594;-68
2022/11/25 05:16:35;;;;;;;4.10;3.70;;;5.80;43.40;;;;;;10397890;28;20237;-74
2022/11/25 05:21:38;;;;;;;4.63;4.23;;;5.80;43.40;;;;;;10402432;28;20295;-69
2022/11/25 05:26:42;;;;;;;5.40;4.90;;;5.80;43.30;;;;;;10404128;28;20229;-69
2022/11/25 05:31:47;;;;;;;4.83;4.33;;;5.80;43.00;;;;;;10402606;28;20681;-70
2022/11/25 05:36:51;;;;;;;4.83;4.43;;;5.80;43.00;;;;;;10401585;28;20268;-68
2022/11/25 05:41:54;;;;;;;5.03;4.63;;;5.80;43.10;;;;;;10400309;28;20221;-68
2022/11/25 05:46:58;;;;;;;5.07;4.13;;;5.80;43.00;;;;;;10398865;28;20225;-69
2022/11/25 05:52:01;;;;;;;5.17;4.77;;;5.70;42.90;;;;;;10399016;28;20236;-72
2022/11/25 05:57:05;;;;;;;6.97;6.27;;;5.70;43.00;;;;;;10397915;28;20225;-71
2022/11/25 06:02:09;;;;;;;6.10;5.50;;;5.70;42.90;;;;;;10388638;28;20824;-72
2022/11/25 06:07:12;;;;;;;6.30;5.67;;;5.60;42.60;;;;;;10389468;28;20316;-72
2022/11/25 06:12:16;;;;;;;9.90;6.37;;;5.50;42.70;;;;;;10391470;28;20236;-72
2022/11/25 06:17:20;;;;;;;9.00;6.63;;;5.50;42.60;;;;;;10391638;28;20236;-72
2022/11/25 06:22:23;;;;;;;7.13;5.67;;;5.40;42.50;;;;;;10391737;28;20233;-73
2022/11/25 06:27:26;;;;;;;6.50;5.07;;;5.30;43.00;;;;;;10391454;28;21044;-68
2022/11/25 06:32:51;;;;;;;6.30;5.27;;;5.30;44.20;;;;;;10396080;28;20246;-68
2022/11/25 06:37:54;;;;;;;5.07;4.57;;;5.30;44.10;;;;;;10394103;28;20907;-68
2022/11/25 06:42:57;;;;;;;4.63;4.23;;;5.40;44.00;;;;;;10398470;28;20236;-68
2022/11/25 06:48:02;;;;;;;5.40;4.63;;;5.40;43.90;;;;;;10397776;28;20226;-72
2022/11/25 06:53:05;;;;;;;7.03;5.07;;;5.40;43.80;;;;;;10395427;28;20233;-72
2022/11/25 06:58:08;;;;;;;5.20;4.70;;;5.40;43.50;;;;;;10396189;28;20215;-75
2022/11/25 07:03:33;;;;;;;5.93;5.33;;;5.30;43.60;;;;;;10400371;28;20284;-75
2022/11/25 07:08:36;;;;;;;6.20;5.60;;;5.30;43.80;;;;;;10396626;28;20717;-75
2022/11/25 07:13:39;;;;;;;7.10;6.40;;;5.30;43.80;;;;;;10398453;28;20776;-75
2022/11/25 07:18:43;;;;;;;7.20;6.43;;;5.40;44.00;;;;;;10396486;28;20217;-75
2022/11/25 07:23:48;;;;;;;6.83;6.23;;;5.40;44.20;;;;;;10397258;28;20233;-75
2022/11/25 07:28:52;;;;;;;6.93;6.30;;;5.40;44.20;;;;;;10395888;28;20228;-75
2022/11/25 07:33:58;;;;;;;6.53;5.93;;;5.50;44.30;;;;;;10395555;28;20233;-75
2022/11/25 07:39:03;;;;;;;6.30;5.70;;;5.50;44.40;;;;;;10397629;28;20217;-71
2022/11/25 07:44:07;;;;;;;6.07;5.47;;;5.60;44.40;;;;;;10390426;28;20277;-74
2022/11/25 07:49:14;;;;;;;7.10;6.40;;;5.60;44.30;;;;;;10397511;28;20226;-69
2022/11/25 07:54:17;;;;;;;7.07;6.33;;;5.70;44.40;;;;;;10395186;28;20234;-69
2022/11/25 07:59:22;;;;;;;8.20;6.60;;;5.70;44.30;;;;;;10398109;28;20218;-69
2022/11/25 08:04:26;;;;;;;10.40;7.13;;;5.70;44.50;;;;;;10396933;28;20951;-69
2022/11/25 08:09:30;;;;;;;8.23;7.40;;;5.80;44.60;;;;;;10395064;28;20896;-69
2022/11/25 08:14:33;;;;;;;10.30;9.20;;;5.80;44.60;;;;;;10398423;28;20236;-69
2022/11/25 08:19:39;;;;;;;10.20;9.17;;;5.80;44.80;;;;;;10396802;28;20238;-69
2022/11/25 08:24:42;;;;;;;9.17;7.73;;;5.80;45.00;;;;;;10396108;28;20241;-68
2022/11/25 08:29:45;;;;;;;7.47;6.17;;;5.90;45.00;;;;;;10396929;28;20280;-69
2022/11/25 08:34:49;;;;;;;5.40;4.90;;;5.90;45.00;;;;;;10397106;28;20725;-69
2022/11/25 08:39:52;;;;;;;5.50;4.67;;;6.00;45.00;;;;;;10396662;28;20229;-68
2022/11/25 08:44:56;;;;;;;4.63;4.23;;;6.00;44.80;;;;;;10393222;28;20914;-68
2022/11/25 08:50:00;;;;;;;13.23;11.60;;;6.10;44.80;;;;;;10396065;28;20237;-68
2022/11/25 08:55:04;;;;;;;7.70;6.53;;;6.10;44.90;;;;;;10387327;28;20237;-68
2022/11/25 09:00:09;;;;;;;5.47;4.90;;;6.20;44.90;;;;;;10394220;28;20230;-68
2022/11/25 09:05:16;;;;;;;5.10;4.70;;;6.20;45.60;;;;;;10394321;28;20234;-68
2022/11/25 09:10:19;;;;;;;5.47;4.83;;;6.20;45.20;;;;;;10394769;28;20241;-74
2022/11/25 09:15:22;;;;;;;5.77;4.60;;;6.30;45.10;;;;;;10393950;28;20233;-73
2022/11/25 09:20:27;;;;;;;6.23;5.63;;;6.30;45.10;;;;;;10393430;28;20863;-67
2022/11/25 09:25:31;;;;;;;5.47;4.97;;;6.40;45.40;;;;;;10399611;28;20229;-67
2022/11/25 09:30:34;;;;;;;5.93;5.30;;;6.50;45.40;;;;;;10398477;28;20228;-68
2022/11/25 09:35:38;;;;;;;7.53;6.83;;;6.50;45.40;;;;;;10390784;28;20241;-68
2022/11/25 09:40:50;;;;;;;10.23;6.70;;;6.60;45.50;;;;;;10397569;28;20225;-68
2022/11/25 09:51:46;;;;;;;6.93;6.20;;;6.70;46.00;;;;;;10394767;28;20238;-68
2022/11/25 09:56:54;;;;;;;7.77;6.97;;;6.80;46.10;;;;;;10400793;28;20241;-68
2022/11/25 10:02:02;;;;;;;9.60;8.70;;;6.90;46.10;;;;;;10397914;28;20229;-68
2022/11/25 10:07:16;;;;;;;7.90;7.20;;;6.90;46.20;;;;;;10400405;28;20232;-68
2022/11/25 10:12:27;;;;;;;7.50;6.70;;;7.00;46.40;;;;;;10394764;28;20640;-68
2022/11/25 10:17:38;;;;;;;7.27;6.57;;;7.10;46.70;;;;;;10397860;28;20241;-69
2022/11/25 10:22:43;;;;;;;7.00;5.43;;;7.20;47.10;;;;;;10399757;28;20252;-69
2022/11/25 10:27:52;;;;;;;5.67;5.17;;;7.30;46.70;;;;;;10397760;28;20226;-68
2022/11/25 10:33:04;;;;;;;4.87;3.87;;;7.40;47.00;;;;;;10396746;28;20245;-68
2022/11/25 10:38:15;;;;;;;4.13;3.73;;;7.50;46.90;;;;;;10398909;28;20237;-68
2022/11/25 10:43:21;;;;;;;5.50;4.30;;;7.60;47.00;;;;;;10395859;28;20240;-69
2022/11/25 10:48:46;;;;;;;4.07;3.77;;;7.80;46.70;;;;;;10399757;28;20748;-70
2022/11/25 10:54:11;;;;;;;4.00;3.60;;;7.90;47.60;;;;;;10395612;28;20795;-70
2022/11/25 10:59:21;;;;;;;3.70;3.40;;;8.10;48.10;;;;;;10399041;28;20236;-70
2022/11/25 11:04:24;;;;;;;3.50;3.20;;;8.20;47.40;;;;;;10394879;28;20713;-69
2022/11/25 11:09:36;;;;;;;4.17;3.77;;;8.50;47.70;;;;;;10398828;28;20229;-69
2022/11/25 11:14:39;;;;;;;2.90;2.70;;;8.80;47.70;;;;;;10398176;28;20245;-69
2022/11/25 11:19:42;;;;;;;2.83;2.63;;;9.00;47.40;;;;;;10398212;28;20234;-72
2022/11/25 11:24:46;;;;;;;2.93;2.63;;;9.20;47.10;;;;;;10391707;28;20237;-69
2022/11/25 11:30:08;;;;;;;3.10;2.80;;;9.50;46.70;;;;;;10395515;28;20221;-69
2022/11/25 11:35:20;;;;;;;2.70;2.50;;;9.70;46.10;;;;;;10393052;28;20865;-69
2022/11/25 11:40:33;;;;;;;2.87;2.60;;;9.80;46.10;;;;;;10391590;28;20709;-69
2022/11/25 11:45:53;;;;;;;5.07;2.50;;;9.90;45.90;;;;;;10395665;28;20241;-69
2022/11/25 11:51:06;;;;;;;2.63;2.30;;;10.20;45.00;;;;;;10388306;28;20221;-69
2022/11/25 11:56:16;;;;;;;2.60;2.40;;;10.30;44.60;;;;;;10392593;28;20651;-69
2022/11/25 12:01:52;;;;;;;2.70;2.50;;;10.50;44.40;;;;;;10395121;28;20225;-69
2022/11/25 12:07:02;;;;;;;4.83;2.57;;;10.70;44.70;;;;;;10392741;28;20236;-69
2022/11/25 12:12:12;;;;;;;2.90;2.70;;;10.90;44.40;;;;;;10392356;28;20229;-75
2022/11/25 12:17:20;;;;;;;2.70;2.50;;;11.00;44.40;;;;;;10386646;28;20707;-75
2022/11/25 12:22:29;;;;;;;2.60;2.40;;;11.20;44.50;;;;;;10392222;28;20229;-75
2022/11/25 12:27:37;;;;;;;3.67;2.77;;;11.30;44.50;;;;;;10393840;28;20777;-75
2022/11/25 12:32:57;;;;;;;3.67;2.60;;;11.50;44.50;;;;;;10387568;28;20311;-70
2022/11/25 12:38:09;;;;;;;2.80;2.60;;;11.60;43.80;;;;;;10392451;28;20236;-70
2022/11/25 12:43:25;;;;;;;2.73;2.53;;;11.70;43.90;;;;;;10391587;28;20229;-70
2022/11/25 12:48:28;;;;;;;3.40;2.47;;;11.70;43.30;;;;;;10392746;28;20649;-70
2022/11/25 12:53:38;;;;;;;3.33;2.83;;;11.80;44.10;;;;;;10390476;28;20234;-70
2022/11/25 12:58:49;;;;;;;2.83;2.53;;;11.90;43.60;;;;;;10400362;28;20236;-70
2022/11/25 13:04:11;;;;;;;2.63;2.40;;;11.90;43.60;;;;;;10395063;28;20283;-70
2022/11/25 13:09:36;;;;;;;2.83;2.47;;;11.90;43.40;;;;;;10394028;28;20240;-70
2022/11/25 13:15:08;;;;;;;3.47;2.50;;;12.00;43.30;;;;;;10394502;28;20609;-70
2022/11/25 13:20:36;;;;;;;5.50;3.83;;;12.00;43.40;;;;;;10387561;28;20218;-70
2022/11/25 13:25:41;;;;;;;4.47;2.90;;;12.10;43.30;;;;;;10396627;28;20360;-70
2022/11/25 13:30:50;;;;;;;2.73;2.50;;;12.10;43.80;;;;;;10393793;28;20214;-69
2022/11/25 13:35:54;;;;;;;3.77;2.60;;;12.10;43.40;;;;;;10393969;28;20222;-75
2022/11/25 13:40:59;;;;;;;3.47;3.10;;;12.10;43.70;;;;;;10397189;28;20229;-75
2022/11/25 13:46:04;;;;;;;2.53;2.33;;;12.20;43.90;;;;;;10400777;28;20228;-74
2022/11/25 13:51:17;;;;;;;2.77;2.53;;;12.20;43.40;;;;;;10396710;28;20230;-75
2022/11/25 13:56:28;;;;;;;3.00;2.70;;;12.20;43.30;;;;;;10401954;28;20260;-75
2022/11/25 14:01:32;;;;;;;3.33;3.03;;;12.20;43.00;;;;;;10400130;28;20604;-75
2022/11/25 14:07:06;;;;;;;3.30;3.00;;;12.20;43.70;;;;;;10397623;28;20234;-75
2022/11/25 14:12:37;;;;;;;4.23;3.00;;;12.10;43.90;;;;;;10398156;28;20229;-75
2022/11/25 14:18:14;;;;;;;3.60;3.30;;;12.10;43.40;;;;;;10400483;28;20283;-76
2022/11/25 14:23:50;;;;;;;3.90;3.60;;;12.00;43.30;;;;;;10391822;28;20634;-75
2022/11/25 14:28:58;;;;;;;4.67;3.30;;;11.90;43.20;;;;;;10390336;28;20217;-72
2022/11/25 14:34:10;;;;;;;4.30;3.90;;;11.80;44.30;;;;;;10397798;28;20259;-74
2022/11/25 14:39:20;;;;;;;6.93;3.47;;;11.70;43.40;;;;;;10394396;28;20229;-74
2022/11/25 14:44:29;;;;;;;4.03;3.50;;;11.70;45.70;;;;;;10397465;28;20710;-69
2022/11/25 14:49:47;;;;;;;11.20;3.90;;;11.70;44.40;;;;;;10394501;28;20303;-66
2022/11/25 14:55:11;;;;;;;9.27;4.27;;;11.80;46.60;;;;;;10397167;28;20694;-69
2022/11/25 15:00:16;;;;;;;5.33;4.23;;;11.90;46.50;;;;;;10391910;28;20225;-70
2022/11/25 15:05:24;;;;;;;5.07;4.47;;;12.10;45.00;;;;;;10397092;28;20226;-70
2022/11/25 15:10:42;;;;;;;4.50;4.10;;;12.20;44.30;;;;;;10395790;28;20229;-70
2022/11/25 15:15:46;;;;;;;8.27;4.00;;;12.10;43.90;;;;;;10394564;28;20252;-70
2022/11/25 15:20:56;;;;;;;5.10;4.63;;;12.10;45.00;;;;;;10392499;28;20792;-67
2022/11/25 15:26:00;;;;;;;5.10;4.70;;;12.00;44.10;;;;;;10396597;28;20231;-70
2022/11/25 15:31:08;;;;;;;8.47;6.30;;;12.00;44.20;;;;;;10388541;28;20229;-70
2022/11/25 15:36:13;;;;;;;6.07;5.40;;;11.90;44.30;;;;;;10389769;28;20233;-70
2022/11/25 15:41:20;;;;;;;8.90;8.00;;;11.90;44.40;;;;;;10392494;28;20272;-71
2022/11/25 15:46:25;;;;;;;7.67;6.90;;;11.80;44.60;;;;;;10388849;28;20304;-70
2022/11/25 15:51:34;;;;;;;6.37;5.77;;;11.80;44.40;;;;;;10388444;28;20233;-75
2022/11/25 15:56:42;;;;;;;6.50;5.60;;;11.80;44.30;;;;;;10393108;28;20248;-71
2022/11/25 16:01:46;;;;;;;19.07;15.00;;;11.80;44.60;;;;;;10392026;28;20972;-67
2022/11/25 16:06:58;;;;;;;7.83;6.57;;;11.70;45.00;;;;;;10392703;28;20236;-67
2022/11/25 16:12:05;;;;;;;14.37;12.97;;;11.70;44.70;;;;;;10391285;28;20899;-67
2022/11/25 16:17:12;;;;;;;6.80;6.10;;;11.70;44.60;;;;;;10392413;28;20296;-67
2022/11/25 16:22:18;;;;;;;7.10;6.40;;;11.70;44.40;;;;;;10390670;28;20287;-67
2022/11/25 16:27:24;;;;;;;7.20;6.60;;;11.50;44.40;;;;;;10386784;28;20642;-67
2022/11/25 16:32:30;;;;;;;6.67;6.07;;;11.50;44.80;;;;;;10392832;28;20226;-67
2022/11/25 16:37:35;;;;;;;6.20;5.60;;;11.50;44.80;;;;;;10399719;28;20226;-67
2022/11/25 16:42:38;;;;;;;5.23;4.73;;;11.40;44.80;;;;;;10401054;28;20230;-67
2022/11/25 16:47:41;;;;;;;6.37;5.30;;;11.40;44.80;;;;;;10402970;28;20236;-67
2022/11/25 16:52:46;;;;;;;7.20;6.50;;;11.40;44.90;;;;;;10399698;28;20300;-67
2022/11/25 16:57:49;;;;;;;6.00;5.40;;;11.30;45.00;;;;;;10400923;28;20248;-67
2022/11/25 17:02:52;;;;;;;6.93;5.90;;;11.30;44.90;;;;;;10400487;28;20226;-67
2022/11/25 17:07:57;;;;;;;6.77;6.17;;;11.20;45.00;;;;;;10403931;28;20267;-67
2022/11/25 17:13:01;;;;;;;5.93;5.30;;;11.10;45.30;;;;;;10398716;28;20320;-67
2022/11/25 17:18:07;;;;;;;6.63;5.77;;;11.10;45.50;;;;;;10402932;28;20240;-67
2022/11/25 17:23:14;;;;;;;6.50;5.90;;;11.10;45.80;;;;;;10401342;28;20698;-67
2022/11/25 17:28:20;;;;;;;6.10;5.50;;;11.10;45.90;;;;;;10400848;28;20928;-67
2022/11/25 17:33:23;;;;;;;7.27;6.57;;;11.10;45.80;;;;;;10401146;28;20233;-67
2022/11/25 17:38:28;;;;;;;6.67;5.97;;;11.00;45.50;;;;;;10398842;28;20799;-67
2022/11/25 17:43:32;;;;;;;6.47;5.83;;;11.00;46.00;;;;;;10397051;28;21103;-67
2022/11/25 17:48:37;;;;;;;6.27;5.67;;;10.90;45.60;;;;;;10400207;28;20234;-67
2022/11/25 17:53:41;;;;;;;8.83;6.43;;;11.00;45.60;;;;;;10396492;28;20225;-67
2022/11/25 17:58:45;;;;;;;6.50;5.73;;;11.00;45.90;;;;;;10397699;28;20229;-67
2022/11/25 18:03:50;;;;;;;6.03;5.43;;;10.90;45.50;;;;;;10397110;28;20229;-67
2022/11/25 18:08:55;;;;;;;6.20;5.60;;;10.90;45.50;;;;;;10393111;28;20583;-67
2022/11/25 18:13:58;;;;;;;6.93;6.23;;;10.80;45.60;;;;;;10395569;28;20276;-67
2022/11/25 18:19:02;;;;;;;6.37;5.77;;;10.80;45.60;;;;;;10396450;28;20225;-67
2022/11/25 18:24:07;;;;;;;6.10;5.50;;;10.80;45.70;;;;;;10396715;28;20229;-67
2022/11/25 18:29:15;;;;;;;6.53;5.70;;;10.80;45.80;;;;;;10395787;28;20287;-67
2022/11/25 18:34:19;;;;;;;6.43;5.80;;;10.70;45.60;;;;;;10396829;28;20226;-67
2022/11/25 18:39:23;;;;;;;6.97;6.27;;;10.70;45.40;;;;;;10395173;28;20236;-69
2022/11/25 18:44:28;;;;;;;7.83;6.90;;;10.60;45.50;;;;;;10398931;28;20260;-69
2022/11/25 18:49:32;;;;;;;11.23;9.63;;;10.60;45.60;;;;;;10398556;28;20232;-75
2022/11/25 18:54:36;;;;;;;7.00;6.30;;;10.60;45.40;;;;;;10395519;28;20775;-75
2022/11/25 18:59:41;;;;;;;7.53;6.60;;;10.60;45.60;;;;;;10397284;28;20253;-75
2022/11/25 19:04:44;;;;;;;6.43;5.83;;;10.60;45.40;;;;;;10398697;28;20237;-75
2022/11/25 19:09:49;;;;;;;7.30;6.27;;;10.50;45.20;;;;;;10394971;28;20229;-69
2022/11/25 19:14:52;;;;;;;6.43;5.83;;;10.50;45.50;;;;;;10398258;28;20230;-70
2022/11/25 19:19:55;;;;;;;8.43;7.33;;;10.50;45.40;;;;;;10395622;28;20280;-70
2022/11/25 19:25:00;;;;;;;8.80;7.30;;;10.40;45.40;;;;;;10394270;28;20598;-74
2022/11/25 19:30:03;;;;;;;7.73;6.03;;;10.40;45.60;;;;;;10396409;28;20726;-68
2022/11/25 19:35:08;;;;;;;6.80;5.57;;;10.40;45.70;;;;;;10396958;28;20222;-68
2022/11/25 19:40:18;;;;;;;7.70;5.77;;;10.30;45.80;;;;;;10395057;28;20234;-68
2022/11/25 19:45:22;;;;;;;6.60;6.00;;;10.30;46.20;;;;;;10397367;28;20610;-74
2022/11/25 19:50:28;;;;;;;6.33;5.73;;;10.20;45.80;;;;;;10393495;28;20225;-74
2022/11/25 19:55:32;;;;;;;7.40;6.13;;;10.20;46.00;;;;;;10385560;28;20225;-74
2022/11/25 20:00:36;;;;;;;7.27;6.23;;;10.20;45.90;;;;;;10395706;28;20725;-74
2022/11/25 20:05:39;;;;;;;7.90;6.93;;;10.20;45.60;;;;;;10391286;28;20964;-74
2022/11/25 20:10:44;;;;;;;6.60;6.00;;;10.10;45.40;;;;;;10391423;28;20225;-74
2022/11/25 20:15:47;;;;;;;7.07;6.47;;;10.10;45.40;;;;;;10393832;28;20671;-74
2022/11/25 20:20:56;;;;;;;6.23;5.60;;;10.00;45.10;;;;;;10392590;28;20898;-74
2022/11/25 20:26:00;;;;;;;7.33;6.30;;;10.00;45.10;;;;;;10391477;28;20225;-74
2022/11/25 20:31:03;;;;;;;6.43;5.73;;;10.00;45.30;;;;;;10395295;28;20229;-74
2022/11/25 20:36:12;;;;;;;6.90;6.30;;;10.00;45.50;;;;;;10393227;28;20225;-72
2022/11/25 20:41:17;;;;;;;7.13;6.33;;;9.90;46.70;;;;;;10393032;28;20765;-74
2022/11/25 20:46:29;;;;;;;6.20;5.60;;;9.90;46.80;;;;;;10394458;28;20241;-74
2022/11/25 20:51:32;;;;;;;8.00;6.20;;;9.90;47.70;;;;;;10393630;28;20728;-74
2022/11/25 20:56:37;;;;;;;6.47;5.77;;;10.00;45.90;;;;;;10396888;28;20230;-74
2022/11/25 21:01:40;;;;;;;6.97;6.10;;;10.00;46.10;;;;;;10393872;28;20237;-74
2022/11/25 21:06:44;;;;;;;7.73;6.63;;;10.00;45.90;;;;;;10391716;28;20280;-74
2022/11/25 21:11:49;;;;;;;7.53;6.83;;;10.00;46.00;;;;;;10392742;28;20226;-74
2022/11/25 21:16:52;;;;;;;8.50;7.57;;;10.00;46.30;;;;;;10395127;28;20217;-74
2022/11/25 21:21:55;;;;;;;9.13;7.93;;;10.00;46.10;;;;;;10396903;28;20222;-74
2022/11/25 21:27:03;;;;;;;8.37;7.50;;;10.00;46.20;;;;;;10398909;28;20222;-74
2022/11/25 21:32:20;;;;;;;8.70;6.97;;;10.00;46.60;;;;;;10400949;28;20218;-74
2022/11/25 21:37:29;;;;;;;8.87;7.20;;;10.00;46.80;;;;;;10400148;28;20288;-74
2022/11/25 21:42:34;;;;;;;8.27;7.17;;;10.00;46.60;;;;;;10396435;28;20228;-74
2022/11/25 21:47:37;;;;;;;13.83;10.40;;;9.90;47.30;;;;;;10400810;28;20241;-66
2022/11/25 21:52:45;;;;;;;11.80;10.03;;;9.90;47.00;;;;;;10392463;28;20218;-74
2022/11/25 21:57:50;;;;;;;12.27;9.70;;;9.90;47.00;;;;;;10392457;28;20271;-66
2022/11/25 22:02:54;;;;;;;11.63;8.27;;;9.90;47.30;;;;;;10394100;28;20477;-66
2022/11/25 22:07:58;;;;;;;8.07;6.97;;;9.90;47.30;;;;;;10392760;28;20838;-73
2022/11/25 22:13:05;;;;;;;13.57;8.50;;;9.80;47.20;;;;;;10393882;28;21781;-76
2022/11/25 22:18:17;;;;;;;10.27;9.10;;;9.90;47.30;;;;;;10394207;28;20217;-70
2022/11/25 22:23:21;;;;;;;14.77;10.20;;;9.90;47.50;;;;;;10392765;28;20230;-68
2022/11/25 22:28:27;;;;;;;17.43;10.33;;;9.90;47.00;;;;;;10394738;28;20238;-66
2022/11/25 22:33:32;;;;;;;14.80;9.23;;;9.90;47.00;;;;;;10394418;28;20719;-68
2022/11/25 22:38:35;;;;;;;8.00;7.20;;;9.90;46.90;;;;;;10394654;28;20233;-66
2022/11/25 22:43:45;;;;;;;10.33;8.23;;;9.90;46.80;;;;;;10394378;28;20947;-74
2022/11/25 22:48:48;;;;;;;8.50;7.37;;;9.80;46.80;;;;;;10394423;28;20230;-66
2022/11/25 22:53:51;;;;;;;9.00;7.87;;;9.70;46.70;;;;;;10390098;28;20226;-74
2022/11/25 22:58:59;;;;;;;8.93;7.23;;;9.70;47.00;;;;;;10394316;28;20244;-74
2022/11/25 23:04:02;;;;;;;7.40;6.60;;;9.70;47.30;;;;;;10393343;28;20236;-68
2022/11/25 23:09:10;;;;;;;9.37;7.00;;;9.70;47.20;;;;;;10390670;28;20229;-66
2022/11/25 23:14:14;;;;;;;8.70;6.97;;;9.70;47.10;;;;;;10392443;28;20240;-66
2022/11/25 23:19:18;;;;;;;11.77;9.93;;;9.70;47.20;;;;;;10391455;28;20226;-68
2022/11/25 23:24:21;;;;;;;14.33;9.13;;;9.80;47.10;;;;;;10391710;28;20229;-66
2022/11/25 23:29:25;;;;;;;9.17;7.80;;;9.80;47.10;;;;;;10393726;28;20280;-66
2022/11/25 23:34:29;;;;;;;7.70;6.70;;;9.80;47.30;;;;;;10392310;28;20794;-66
2022/11/25 23:39:32;;;;;;;15.47;9.43;;;9.80;47.10;;;;;;10394780;28;20300;-66
2022/11/25 23:44:37;;;;;;;8.73;7.83;;;9.80;47.10;;;;;;10394783;28;20722;-66
2022/11/25 23:49:43;;;;;;;12.73;8.03;;;9.90;47.20;;;;;;10398831;28;20244;-74
2022/11/25 23:54:47;;;;;;;8.40;7.53;;;9.90;47.00;;;;;;10395450;28;20233;-74
2022/11/25 23:59:52;;;;;;;12.87;8.37;;;9.90;46.90;;;;;;10397206;28;20233;-74
